createdAt,value
2018-11-05T00:00:14.318Z,100.00
2018-11-05T00:05:14.921Z,100.00
2018-11-05T00:10:15.572Z,100.00
2018-11-05T00:15:16.253Z,100.00
2018-11-05T00:20:16.877Z,100.00
2018-11-05T00:25:17.527Z,100.00
2018-11-05T00:30:18.176Z,100.00
2018-11-05T00:35:18.810Z,100.00
2018-11-05T00:40:19.462Z,100.00
2018-11-05T00:45:20.029Z,100.00
2018-11-05T00:50:20.770Z,100.00
2018-11-05T00:55:21.416Z,100.00
2018-11-05T01:00:22.068Z,100.00
2018-11-05T01:05:22.715Z,100.00
2018-11-05T01:10:23.361Z,100.00
2018-11-05T01:15:24.007Z,100.00
2018-11-05T01:20:24.657Z,100.00
2018-11-05T01:25:25.293Z,100.00
2018-11-05T01:30:25.961Z,100.00
2018-11-05T01:35:26.608Z,100.00
2018-11-05T01:40:27.256Z,100.00
2018-11-05T01:45:27.904Z,100.00
2018-11-05T01:50:29.633Z,100.00
2018-11-05T01:55:30.322Z,100.00
2018-11-05T02:00:30.979Z,100.00
2018-11-05T02:05:31.626Z,100.00
2018-11-05T02:10:32.466Z,100.00
2018-11-05T02:15:32.926Z,100.00
2018-11-05T02:20:33.564Z,100.00
2018-11-05T02:25:34.217Z,100.00
2018-11-05T02:30:34.875Z,100.00
2018-11-05T02:35:35.518Z,100.00
2018-11-05T02:40:36.166Z,100.00
2018-11-05T02:45:36.815Z,100.00
2018-11-05T02:50:37.456Z,100.00
2018-11-05T02:55:38.126Z,100.00
2018-11-05T03:00:38.761Z,100.00
2018-11-05T03:05:39.406Z,100.00
2018-11-05T03:10:40.062Z,100.00
2018-11-05T03:15:40.729Z,100.00
2018-11-05T03:20:41.355Z,100.00
2018-11-05T03:25:42.017Z,100.00
2018-11-05T03:30:42.707Z,100.00
2018-11-05T03:35:43.358Z,100.00
2018-11-05T03:40:43.958Z,100.00
2018-11-05T03:45:44.588Z,100.00
2018-11-05T03:50:45.247Z,100.00
2018-11-05T03:55:45.859Z,100.00
2018-11-05T04:00:46.433Z,100.00
2018-11-05T04:05:47.102Z,100.00
2018-11-05T04:10:47.745Z,100.00
2018-11-05T04:15:48.420Z,100.00
2018-11-05T04:20:49.042Z,100.00
2018-11-05T04:25:49.710Z,100.00
2018-11-05T04:30:50.343Z,100.00
2018-11-05T04:35:50.991Z,100.00
2018-11-05T04:40:51.635Z,100.00
2018-11-05T04:45:52.273Z,100.00
2018-11-05T04:50:52.926Z,100.00
2018-11-05T04:55:53.577Z,100.00
2018-11-05T05:00:54.220Z,100.00
2018-11-05T05:05:54.872Z,100.00
2018-11-05T05:10:55.531Z,100.00
2018-11-05T05:15:56.183Z,100.00
2018-11-05T05:20:56.829Z,100.00
2018-11-05T05:25:57.478Z,100.00
2018-11-05T05:30:58.130Z,100.00
2018-11-05T05:35:58.766Z,100.00
2018-11-05T05:40:59.597Z,100.00
2018-11-05T05:46:00.063Z,100.00
2018-11-05T05:51:00.728Z,100.00
2018-11-05T05:56:01.376Z,100.00
2018-11-05T06:01:02.034Z,100.00
2018-11-05T06:06:02.723Z,100.00
2018-11-05T06:11:03.313Z,100.00
2018-11-05T06:16:03.975Z,100.00
2018-11-05T06:21:04.490Z,100.00
2018-11-05T06:26:05.157Z,100.00
2018-11-05T06:31:05.855Z,100.00
2018-11-05T06:36:06.470Z,100.00
2018-11-05T06:41:08.215Z,100.00
2018-11-05T06:46:08.776Z,100.00
2018-11-05T06:51:09.338Z,100.00
2018-11-05T06:56:09.964Z,100.00
2018-11-05T07:01:10.622Z,100.00
2018-11-05T07:06:11.298Z,100.00
2018-11-05T07:11:12.086Z,100.00
2018-11-05T07:16:12.678Z,100.00
2018-11-05T07:21:13.245Z,100.00
2018-11-05T07:26:13.867Z,100.00
2018-11-05T07:31:14.464Z,100.00
2018-11-05T07:36:15.067Z,100.00
2018-11-05T07:41:15.765Z,100.00
2018-11-05T07:46:16.359Z,100.00
2018-11-05T07:51:17.017Z,100.00
2018-11-05T07:56:17.722Z,100.00
2018-11-05T08:01:18.311Z,100.00
2018-11-05T08:06:18.949Z,100.00
2018-11-05T08:11:19.607Z,100.00
2018-11-05T08:16:20.258Z,100.00
2018-11-05T08:21:20.910Z,100.00
2018-11-05T08:26:21.482Z,100.00
2018-11-05T08:31:22.113Z,100.00
2018-11-05T08:36:22.749Z,100.00
2018-11-05T08:41:23.395Z,100.00
2018-11-05T08:46:24.055Z,100.00
2018-11-05T08:51:25.005Z,100.00
2018-11-05T08:56:25.343Z,95.38
2018-11-05T09:01:25.987Z,98.43
2018-11-05T09:06:26.654Z,100.00
2018-11-05T09:11:27.698Z,100.00
2018-11-05T09:16:27.937Z,99.47
2018-11-05T09:21:28.597Z,98.92
2018-11-05T09:26:29.261Z,98.64
2018-11-05T09:31:29.846Z,98.43
2018-11-05T09:36:30.431Z,98.01
2018-11-05T09:41:31.077Z,98.13
2018-11-05T09:46:31.724Z,100.00
2018-11-05T09:51:32.385Z,100.00
2018-11-05T09:56:33.034Z,100.00
2018-11-05T10:01:33.680Z,99.71
2018-11-05T10:06:34.256Z,98.06
2018-11-05T10:11:34.830Z,96.97
2018-11-05T10:16:35.415Z,95.20
2018-11-05T10:21:35.994Z,95.98
2018-11-05T10:26:36.611Z,96.37
2018-11-05T10:31:37.197Z,96.80
2018-11-05T10:36:37.909Z,96.44
2018-11-05T10:41:38.483Z,95.95
2018-11-05T10:46:39.119Z,95.90
2018-11-05T10:51:39.751Z,94.05
2018-11-05T10:56:40.300Z,91.60
2018-11-05T11:01:40.976Z,89.19
2018-11-05T11:06:41.548Z,89.25
2018-11-05T11:11:42.155Z,91.97
2018-11-05T11:16:42.791Z,93.86
2018-11-05T11:21:43.442Z,93.67
2018-11-05T11:26:44.093Z,94.56
2018-11-05T11:31:44.752Z,94.53
2018-11-05T11:36:45.496Z,94.03
2018-11-05T11:41:46.043Z,94.38
2018-11-05T11:46:46.692Z,93.32
2018-11-05T11:51:47.369Z,93.81
2018-11-05T11:56:48.151Z,92.50
2018-11-05T12:01:49.729Z,93.47
2018-11-05T12:06:50.359Z,91.87
2018-11-05T12:11:52.021Z,92.41
2018-11-05T12:16:52.643Z,92.81
2018-11-05T12:21:53.282Z,92.68
2018-11-05T12:26:53.950Z,92.92
2018-11-05T12:31:54.613Z,92.45
2018-11-05T12:36:55.254Z,92.17
2018-11-05T12:41:58.706Z,92.86
2018-11-05T12:52:05.665Z,89.94
2018-11-05T12:57:06.370Z,90.38
2018-11-05T13:02:07.090Z,91.37
2018-11-05T13:07:07.820Z,90.96
2018-11-05T13:12:08.426Z,78.18
2018-11-05T13:17:09.094Z,90.11
2018-11-05T13:22:09.804Z,83.42
2018-11-05T13:27:10.405Z,88.57
2018-11-05T13:32:11.166Z,78.38
2018-11-05T13:37:12.033Z,89.60
2018-11-05T13:42:12.613Z,91.54
2018-11-05T13:47:13.923Z,91.57
2018-11-05T13:52:14.069Z,91.00
2018-11-05T13:57:14.540Z,88.71
2018-11-05T14:02:15.309Z,87.49
2018-11-05T14:07:16.018Z,85.78
2018-11-05T14:12:16.617Z,85.12
2018-11-05T14:17:17.243Z,83.30
2018-11-05T14:22:17.897Z,84.62
2018-11-05T14:27:18.691Z,83.27
2018-11-05T14:32:19.498Z,84.93
2018-11-05T14:37:20.108Z,83.98
2018-11-05T14:42:20.921Z,85.87
2018-11-05T14:57:42.774Z,86.30
2018-11-05T15:02:43.487Z,87.46
2018-11-05T15:07:44.344Z,87.93
2018-11-05T15:12:45.039Z,89.47
2018-11-05T15:17:45.853Z,90.47
2018-11-05T15:22:47.503Z,91.28
2018-11-05T15:27:48.918Z,92.50
2018-11-05T15:32:49.707Z,94.54
2018-11-05T15:43:01.426Z,98.11
2018-11-05T15:48:08.113Z,98.90
2018-11-05T16:08:31.304Z,100.00
2018-11-05T16:13:32.538Z,100.00
2018-11-05T16:18:35.339Z,100.00
2018-11-05T16:23:39.455Z,100.00
2018-11-05T16:28:42.695Z,100.00
2018-11-05T16:33:48.221Z,100.00
2018-11-05T16:38:51.416Z,100.00
2018-11-05T16:43:52.072Z,100.00
2018-11-05T16:48:52.704Z,100.00
2018-11-05T16:53:56.314Z,100.00
2018-11-05T16:58:59.094Z,100.00
2018-11-05T17:04:00.562Z,100.00
2018-11-05T17:09:07.556Z,100.00
2018-11-05T17:14:10.270Z,100.00
2018-11-05T17:19:11.500Z,100.00
2018-11-05T17:24:19.326Z,100.00
2018-11-05T17:29:20.855Z,100.00
2018-11-05T17:34:21.561Z,100.00
2018-11-05T17:39:27.135Z,100.00
2018-11-05T17:44:28.000Z,100.00
2018-11-05T17:49:29.275Z,100.00
2018-11-05T17:54:30.280Z,100.00
2018-11-05T17:59:32.076Z,100.00
2018-11-05T18:04:33.064Z,100.00
2018-11-05T18:09:33.725Z,100.00
2018-11-05T18:14:34.400Z,100.00
2018-11-05T18:24:49.320Z,100.00
2018-11-05T18:29:50.017Z,100.00
2018-11-05T18:35:03.763Z,100.00
2018-11-05T18:40:05.884Z,100.00
2018-11-05T18:45:10.729Z,100.00
2018-11-05T18:50:11.547Z,100.00
2018-11-05T18:55:12.118Z,100.00
2018-11-05T19:00:14.847Z,100.00
2018-11-05T19:05:15.637Z,100.00
2018-11-05T19:10:21.224Z,100.00
2018-11-05T19:15:29.070Z,100.00
2018-11-05T19:25:42.075Z,100.00
2018-11-05T19:30:45.160Z,100.00
2018-11-05T19:35:52.616Z,100.00
2018-11-05T19:40:53.699Z,100.00
2018-11-05T19:45:58.949Z,100.00
2018-11-05T19:51:00.996Z,100.00
2018-11-05T19:56:02.646Z,100.00
2018-11-05T20:01:03.314Z,100.00
2018-11-05T20:06:04.343Z,100.00
2018-11-05T20:11:04.922Z,100.00
2018-11-05T20:16:05.578Z,100.00
2018-11-05T20:21:06.210Z,100.00
2018-11-05T20:26:06.866Z,100.00
2018-11-05T20:31:07.519Z,100.00
2018-11-05T20:36:08.041Z,100.00
2018-11-05T20:41:08.602Z,100.00
2018-11-05T20:46:09.234Z,100.00
2018-11-05T20:51:09.823Z,100.00
2018-11-05T20:56:10.430Z,100.00
2018-11-05T21:01:10.985Z,100.00
2018-11-05T21:06:11.601Z,100.00
2018-11-05T21:11:12.267Z,100.00
2018-11-05T21:16:12.898Z,100.00
2018-11-05T21:21:13.660Z,100.00
2018-11-05T21:26:15.313Z,100.00
2018-11-05T21:31:15.972Z,100.00
2018-11-05T21:36:16.641Z,100.00
2018-11-05T21:41:17.270Z,100.00
2018-11-05T21:46:17.828Z,100.00
2018-11-05T21:51:18.380Z,100.00
2018-11-05T21:56:19.026Z,100.00
2018-11-05T22:01:19.548Z,100.00
2018-11-05T22:06:20.176Z,100.00
2018-11-05T22:11:20.745Z,100.00
2018-11-05T22:16:21.374Z,100.00
2018-11-05T22:21:22.782Z,100.00
2018-11-05T22:26:23.368Z,100.00
2018-11-05T22:31:24.023Z,100.00
2018-11-05T22:36:24.714Z,100.00
2018-11-05T22:41:25.310Z,100.00
2018-11-05T22:46:25.957Z,100.00
2018-11-05T22:51:27.644Z,100.00
2018-11-05T22:56:28.350Z,100.00
2018-11-05T23:01:28.912Z,100.00
2018-11-05T23:06:29.985Z,100.00
2018-11-05T23:11:31.373Z,100.00
2018-11-05T23:16:33.220Z,100.00
2018-11-05T23:21:33.773Z,100.00
2018-11-05T23:26:34.396Z,100.00
2018-11-05T23:31:34.948Z,100.00
2018-11-05T23:36:35.499Z,100.00
2018-11-05T23:41:36.049Z,100.00
2018-11-05T23:46:36.609Z,100.00
2018-11-05T23:51:37.251Z,100.00
2018-11-05T23:56:37.862Z,100.00
